sensor_id;sensor_type;location;lat;lon;timestamp;P1;durP1;ratioP1;P2;durP2;ratioP2
13584;SDS011;6863;48.402;9.994;2023-02-01T00:01:24;8.30;;;5.97;;
13584;SDS011;6863;48.402;9.994;2023-02-01T00:03:49;8.87;;;6.17;;
13584;SDS011;6863;48.402;9.994;2023-02-01T00:06:15;6.87;;;5.53;;
13584;SDS011;6863;48.402;9.994;2023-02-01T00:08:40;7.60;;;5.60;;
13584;SDS011;6863;48.402;9.994;2023-02-01T00:11:07;6.83;;;5.80;;
13584;SDS011;6863;48.402;9.994;2023-02-01T00:13:35;7.00;;;5.97;;
13584;SDS011;6863;48.402;9.994;2023-02-01T00:16:22;7.00;;;5.50;;
13584;SDS011;6863;48.402;9.994;2023-02-01T00:18:50;6.33;;;5.40;;
13584;SDS011;6863;48.402;9.994;2023-02-01T00:21:18;6.87;;;5.57;;
13584;SDS011;6863;48.402;9.994;2023-02-01T00:23:45;7.60;;;5.63;;
13584;SDS011;6863;48.402;9.994;2023-02-01T00:26:15;6.70;;;6.00;;
13584;SDS011;6863;48.402;9.994;2023-02-01T00:28:43;9.37;;;6.20;;
13584;SDS011;6863;48.402;9.994;2023-02-01T00:31:09;8.97;;;6.40;;
13584;SDS011;6863;48.402;9.994;2023-02-01T00:33:34;7.23;;;5.57;;
13584;SDS011;6863;48.402;9.994;2023-02-01T00:36:00;7.57;;;5.70;;
13584;SDS011;6863;48.402;9.994;2023-02-01T00:38:31;8.53;;;5.60;;
13584;SDS011;6863;48.402;9.994;2023-02-01T00:41:05;11.53;;;6.53;;
13584;SDS011;6863;48.402;9.994;2023-02-01T00:43:33;6.77;;;5.60;;
13584;SDS011;6863;48.402;9.994;2023-02-01T00:45:58;7.27;;;5.47;;
13584;SDS011;6863;48.402;9.994;2023-02-01T00:48:25;7.97;;;5.93;;
13584;SDS011;6863;48.402;9.994;2023-02-01T00:50:51;6.03;;;5.27;;
13584;SDS011;6863;48.402;9.994;2023-02-01T00:53:16;5.93;;;5.07;;
13584;SDS011;6863;48.402;9.994;2023-02-01T00:55:46;7.07;;;5.50;;
13584;SDS011;6863;48.402;9.994;2023-02-01T00:58:12;6.17;;;5.43;;
13584;SDS011;6863;48.402;9.994;2023-02-01T01:00:38;6.23;;;5.17;;
13584;SDS011;6863;48.402;9.994;2023-02-01T01:03:04;6.03;;;5.43;;
13584;SDS011;6863;48.402;9.994;2023-02-01T01:05:43;10.77;;;5.70;;
13584;SDS011;6863;48.402;9.994;2023-02-01T01:08:09;5.77;;;5.10;;
13584;SDS011;6863;48.402;9.994;2023-02-01T01:10:35;5.37;;;4.87;;
13584;SDS011;6863;48.402;9.994;2023-02-01T01:13:00;6.00;;;5.07;;
13584;SDS011;6863;48.402;9.994;2023-02-01T01:15:26;8.80;;;5.63;;
13584;SDS011;6863;48.402;9.994;2023-02-01T01:17:51;6.83;;;5.67;;
13584;SDS011;6863;48.402;9.994;2023-02-01T01:20:17;7.37;;;5.23;;
13584;SDS011;6863;48.402;9.994;2023-02-01T01:22:43;6.57;;;5.33;;
13584;SDS011;6863;48.402;9.994;2023-02-01T01:25:08;6.43;;;5.13;;
13584;SDS011;6863;48.402;9.994;2023-02-01T01:27:34;6.63;;;4.87;;
13584;SDS011;6863;48.402;9.994;2023-02-01T01:29:59;8.63;;;5.73;;
13584;SDS011;6863;48.402;9.994;2023-02-01T01:32:25;8.30;;;5.70;;
13584;SDS011;6863;48.402;9.994;2023-02-01T01:34:50;6.03;;;5.00;;
13584;SDS011;6863;48.402;9.994;2023-02-01T01:37:16;6.10;;;5.50;;
13584;SDS011;6863;48.402;9.994;2023-02-01T01:39:41;6.70;;;4.90;;
13584;SDS011;6863;48.402;9.994;2023-02-01T01:42:09;6.37;;;5.77;;
13584;SDS011;6863;48.402;9.994;2023-02-01T01:47:25;6.63;;;5.93;;
13584;SDS011;6863;48.402;9.994;2023-02-01T01:50:03;7.67;;;5.77;;
13584;SDS011;6863;48.402;9.994;2023-02-01T01:52:31;7.83;;;5.70;;
13584;SDS011;6863;48.402;9.994;2023-02-01T01:54:57;6.70;;;5.53;;
13584;SDS011;6863;48.402;9.994;2023-02-01T01:57:25;9.13;;;6.33;;
13584;SDS011;6863;48.402;9.994;2023-02-01T02:02:33;5.70;;;5.10;;
13584;SDS011;6863;48.402;9.994;2023-02-01T02:05:01;6.93;;;5.80;;
13584;SDS011;6863;48.402;9.994;2023-02-01T02:07:28;7.30;;;5.80;;
13584;SDS011;6863;48.402;9.994;2023-02-01T02:09:56;5.60;;;5.00;;
13584;SDS011;6863;48.402;9.994;2023-02-01T02:12:22;7.20;;;5.10;;
13584;SDS011;6863;48.402;9.994;2023-02-01T02:14:47;6.13;;;5.53;;
13584;SDS011;6863;48.402;9.994;2023-02-01T02:22:35;6.33;;;5.17;;
13584;SDS011;6863;48.402;9.994;2023-02-01T02:33:59;7.20;;;5.40;;
13584;SDS011;6863;48.402;9.994;2023-02-01T02:39:29;7.30;;;5.23;;
13584;SDS011;6863;48.402;9.994;2023-02-01T02:45:38;6.13;;;4.90;;
13584;SDS011;6863;48.402;9.994;2023-02-01T02:48:34;6.03;;;5.07;;
13584;SDS011;6863;48.402;9.994;2023-02-01T02:56:49;5.37;;;4.87;;
13584;SDS011;6863;48.402;9.994;2023-02-01T02:59:36;7.53;;;5.50;;
13584;SDS011;6863;48.402;9.994;2023-02-01T03:02:23;5.77;;;5.17;;
13584;SDS011;6863;48.402;9.994;2023-02-01T03:05:10;5.60;;;5.10;;
13584;SDS011;6863;48.402;9.994;2023-02-01T03:07:49;7.50;;;5.60;;
13584;SDS011;6863;48.402;9.994;2023-02-01T03:13:56;5.73;;;5.13;;
13584;SDS011;6863;48.402;9.994;2023-02-01T03:16:03;6.37;;;5.77;;
13584;SDS011;6863;48.402;9.994;2023-02-01T03:21:18;7.73;;;6.27;;
13584;SDS011;6863;48.402;9.994;2023-02-01T03:23:51;9.57;;;6.70;;
13584;SDS011;6863;48.402;9.994;2023-02-01T03:26:21;7.17;;;5.43;;
13584;SDS011;6863;48.402;9.994;2023-02-01T03:28:55;6.73;;;6.03;;
13584;SDS011;6863;48.402;9.994;2023-02-01T03:31:30;6.63;;;5.60;;
13584;SDS011;6863;48.402;9.994;2023-02-01T03:33:56;6.50;;;5.80;;
13584;SDS011;6863;48.402;9.994;2023-02-01T03:36:27;6.30;;;5.70;;
13584;SDS011;6863;48.402;9.994;2023-02-01T03:39:17;7.47;;;6.30;;
13584;SDS011;6863;48.402;9.994;2023-02-01T03:42:04;6.77;;;5.67;;
13584;SDS011;6863;48.402;9.994;2023-02-01T03:44:41;5.37;;;4.83;;
13584;SDS011;6863;48.402;9.994;2023-02-01T03:47:23;8.00;;;6.30;;
13584;SDS011;6863;48.402;9.994;2023-02-01T03:49:53;7.53;;;6.10;;
13584;SDS011;6863;48.402;9.994;2023-02-01T03:52:27;7.60;;;6.47;;
13584;SDS011;6863;48.402;9.994;2023-02-01T03:54:57;7.50;;;6.23;;
13584;SDS011;6863;48.402;9.994;2023-02-01T03:57:28;8.30;;;6.50;;
13584;SDS011;6863;48.402;9.994;2023-02-01T04:00:08;7.33;;;5.77;;
13584;SDS011;6863;48.402;9.994;2023-02-01T04:02:44;7.70;;;6.53;;
13584;SDS011;6863;48.402;9.994;2023-02-01T04:05:10;8.47;;;6.67;;
13584;SDS011;6863;48.402;9.994;2023-02-01T04:07:36;7.30;;;6.50;;
13584;SDS011;6863;48.402;9.994;2023-02-01T04:10:02;8.87;;;6.53;;
13584;SDS011;6863;48.402;9.994;2023-02-01T04:12:28;10.17;;;6.73;;
13584;SDS011;6863;48.402;9.994;2023-02-01T04:14:54;12.33;;;6.03;;
13584;SDS011;6863;48.402;9.994;2023-02-01T04:17:19;11.07;;;6.77;;
13584;SDS011;6863;48.402;9.994;2023-02-01T04:19:45;6.77;;;5.70;;
13584;SDS011;6863;48.402;9.994;2023-02-01T04:22:11;8.10;;;6.30;;
13584;SDS011;6863;48.402;9.994;2023-02-01T04:24:37;8.53;;;6.87;;
13584;SDS011;6863;48.402;9.994;2023-02-01T04:27:03;6.90;;;5.67;;
13584;SDS011;6863;48.402;9.994;2023-02-01T04:29:28;6.67;;;5.97;;
13584;SDS011;6863;48.402;9.994;2023-02-01T04:31:54;8.47;;;7.10;;
13584;SDS011;6863;48.402;9.994;2023-02-01T04:34:19;6.20;;;5.60;;
13584;SDS011;6863;48.402;9.994;2023-02-01T04:36:47;7.83;;;7.03;;
13584;SDS011;6863;48.402;9.994;2023-02-01T04:39:13;8.40;;;6.47;;
13584;SDS011;6863;48.402;9.994;2023-02-01T04:41:38;7.03;;;6.13;;
13584;SDS011;6863;48.402;9.994;2023-02-01T04:44:04;7.40;;;6.57;;
13584;SDS011;6863;48.402;9.994;2023-02-01T04:46:30;7.27;;;6.30;;
13584;SDS011;6863;48.402;9.994;2023-02-01T04:48:55;8.73;;;6.20;;
13584;SDS011;6863;48.402;9.994;2023-02-01T04:51:22;6.00;;;5.40;;
13584;SDS011;6863;48.402;9.994;2023-02-01T04:53:48;8.60;;;5.90;;
13584;SDS011;6863;48.402;9.994;2023-02-01T04:56:13;6.37;;;5.77;;
13584;SDS011;6863;48.402;9.994;2023-02-01T04:58:39;6.87;;;6.23;;
13584;SDS011;6863;48.402;9.994;2023-02-01T05:01:05;6.40;;;5.80;;
13584;SDS011;6863;48.402;9.994;2023-02-01T05:03:34;8.97;;;6.13;;
13584;SDS011;6863;48.402;9.994;2023-02-01T05:06:00;7.33;;;5.90;;
13584;SDS011;6863;48.402;9.994;2023-02-01T05:08:26;7.50;;;5.70;;
13584;SDS011;6863;48.402;9.994;2023-02-01T05:10:55;5.60;;;5.10;;
13584;SDS011;6863;48.402;9.994;2023-02-01T05:13:23;6.73;;;5.93;;
13584;SDS011;6863;48.402;9.994;2023-02-01T05:16:09;7.60;;;5.70;;
13584;SDS011;6863;48.402;9.994;2023-02-01T05:18:34;6.20;;;5.60;;
13584;SDS011;6863;48.402;9.994;2023-02-01T05:21:00;6.93;;;5.70;;
13584;SDS011;6863;48.402;9.994;2023-02-01T05:23:26;7.23;;;5.30;;
13584;SDS011;6863;48.402;9.994;2023-02-01T05:25:52;9.00;;;6.33;;
13584;SDS011;6863;48.402;9.994;2023-02-01T05:28:22;7.17;;;6.20;;
13584;SDS011;6863;48.402;9.994;2023-02-01T05:30:48;8.70;;;6.30;;
13584;SDS011;6863;48.402;9.994;2023-02-01T05:33:13;8.13;;;6.47;;
13584;SDS011;6863;48.402;9.994;2023-02-01T05:35:39;11.57;;;7.03;;
13584;SDS011;6863;48.402;9.994;2023-02-01T05:38:04;7.47;;;5.73;;
13584;SDS011;6863;48.402;9.994;2023-02-01T05:42:55;8.37;;;6.83;;
13584;SDS011;6863;48.402;9.994;2023-02-01T05:45:24;7.80;;;6.00;;
13584;SDS011;6863;48.402;9.994;2023-02-01T05:47:50;9.20;;;7.00;;
13584;SDS011;6863;48.402;9.994;2023-02-01T05:50:16;11.10;;;6.90;;
13584;SDS011;6863;48.402;9.994;2023-02-01T05:52:41;8.17;;;6.57;;
13584;SDS011;6863;48.402;9.994;2023-02-01T05:55:07;8.17;;;6.50;;
13584;SDS011;6863;48.402;9.994;2023-02-01T05:57:33;10.60;;;6.20;;
13584;SDS011;6863;48.402;9.994;2023-02-01T05:59:58;7.57;;;6.63;;
13584;SDS011;6863;48.402;9.994;2023-02-01T06:02:24;7.73;;;6.47;;
13584;SDS011;6863;48.402;9.994;2023-02-01T06:04:50;7.00;;;6.07;;
13584;SDS011;6863;48.402;9.994;2023-02-01T06:07:16;8.47;;;6.00;;
13584;SDS011;6863;48.402;9.994;2023-02-01T06:09:41;8.20;;;6.57;;
13584;SDS011;6863;48.402;9.994;2023-02-01T06:12:07;7.63;;;6.17;;
13584;SDS011;6863;48.402;9.994;2023-02-01T06:14:33;8.47;;;7.17;;
13584;SDS011;6863;48.402;9.994;2023-02-01T06:16:59;7.53;;;6.37;;
13584;SDS011;6863;48.402;9.994;2023-02-01T06:19:24;7.83;;;6.43;;
13584;SDS011;6863;48.402;9.994;2023-02-01T06:21:50;7.87;;;6.30;;
13584;SDS011;6863;48.402;9.994;2023-02-01T06:24:16;7.70;;;6.23;;
13584;SDS011;6863;48.402;9.994;2023-02-01T06:26:41;6.97;;;6.00;;
13584;SDS011;6863;48.402;9.994;2023-02-01T06:29:09;6.90;;;5.93;;
13584;SDS011;6863;48.402;9.994;2023-02-01T06:31:35;7.23;;;5.30;;
13584;SDS011;6863;48.402;9.994;2023-02-01T06:34:00;7.67;;;6.20;;
13584;SDS011;6863;48.402;9.994;2023-02-01T06:36:27;5.93;;;5.30;;
13584;SDS011;6863;48.402;9.994;2023-02-01T06:38:55;8.20;;;6.03;;
13584;SDS011;6863;48.402;9.994;2023-02-01T06:41:22;7.13;;;4.90;;
13584;SDS011;6863;48.402;9.994;2023-02-01T06:43:48;6.43;;;5.10;;
13584;SDS011;6863;48.402;9.994;2023-02-01T06:46:14;7.03;;;5.57;;
13584;SDS011;6863;48.402;9.994;2023-02-01T06:48:40;6.83;;;5.50;;
13584;SDS011;6863;48.402;9.994;2023-02-01T06:51:06;6.07;;;5.23;;
13584;SDS011;6863;48.402;9.994;2023-02-01T06:53:42;7.67;;;5.47;;
13584;SDS011;6863;48.402;9.994;2023-02-01T06:56:08;5.50;;;4.87;;
13584;SDS011;6863;48.402;9.994;2023-02-01T06:58:34;6.13;;;5.00;;
13584;SDS011;6863;48.402;9.994;2023-02-01T07:01:09;5.23;;;4.70;;
13584;SDS011;6863;48.402;9.994;2023-02-01T07:03:35;6.13;;;4.70;;
13584;SDS011;6863;48.402;9.994;2023-02-01T07:06:05;5.57;;;4.90;;
13584;SDS011;6863;48.402;9.994;2023-02-01T07:08:32;5.20;;;4.70;;
13584;SDS011;6863;48.402;9.994;2023-02-01T07:11:03;6.33;;;5.00;;
13584;SDS011;6863;48.402;9.994;2023-02-01T07:13:30;5.27;;;4.77;;
13584;SDS011;6863;48.402;9.994;2023-02-01T07:16:00;5.93;;;4.77;;
13584;SDS011;6863;48.402;9.994;2023-02-01T07:18:27;6.90;;;4.30;;
13584;SDS011;6863;48.402;9.994;2023-02-01T07:20:53;5.07;;;4.57;;
13584;SDS011;6863;48.402;9.994;2023-02-01T07:23:20;4.63;;;4.23;;
13584;SDS011;6863;48.402;9.994;2023-02-01T07:25:45;4.93;;;4.03;;
13584;SDS011;6863;48.402;9.994;2023-02-01T07:28:11;6.13;;;4.40;;
13584;SDS011;6863;48.402;9.994;2023-02-01T07:30:37;4.33;;;3.77;;
13584;SDS011;6863;48.402;9.994;2023-02-01T07:33:02;4.83;;;4.27;;
13584;SDS011;6863;48.402;9.994;2023-02-01T07:35:28;4.40;;;4.00;;
13584;SDS011;6863;48.402;9.994;2023-02-01T07:37:54;4.50;;;4.10;;
13584;SDS011;6863;48.402;9.994;2023-02-01T07:42:50;4.20;;;3.80;;
13584;SDS011;6863;48.402;9.994;2023-02-01T07:45:19;4.70;;;3.87;;
13584;SDS011;6863;48.402;9.994;2023-02-01T07:47:47;4.80;;;3.50;;
13584;SDS011;6863;48.402;9.994;2023-02-01T07:50:13;4.20;;;3.80;;
13584;SDS011;6863;48.402;9.994;2023-02-01T07:52:40;4.87;;;4.37;;
13584;SDS011;6863;48.402;9.994;2023-02-01T07:55:08;5.70;;;4.13;;
13584;SDS011;6863;48.402;9.994;2023-02-01T07:57:34;3.90;;;3.47;;
13584;SDS011;6863;48.402;9.994;2023-02-01T08:00:00;3.93;;;3.63;;
13584;SDS011;6863;48.402;9.994;2023-02-01T08:02:44;4.27;;;3.87;;
13584;SDS011;6863;48.402;9.994;2023-02-01T08:05:09;5.03;;;4.33;;
13584;SDS011;6863;48.402;9.994;2023-02-01T08:07:35;6.50;;;4.17;;
13584;SDS011;6863;48.402;9.994;2023-02-01T08:10:00;8.10;;;5.37;;
13584;SDS011;6863;48.402;9.994;2023-02-01T08:12:26;6.07;;;4.97;;
13584;SDS011;6863;48.402;9.994;2023-02-01T08:14:52;4.93;;;4.30;;
13584;SDS011;6863;48.402;9.994;2023-02-01T08:17:18;4.67;;;4.17;;
13584;SDS011;6863;48.402;9.994;2023-02-01T08:19:44;5.87;;;3.93;;
13584;SDS011;6863;48.402;9.994;2023-02-01T08:22:10;6.07;;;4.30;;
13584;SDS011;6863;48.402;9.994;2023-02-01T08:24:35;5.70;;;4.60;;
13584;SDS011;6863;48.402;9.994;2023-02-01T08:27:04;6.00;;;4.57;;
13584;SDS011;6863;48.402;9.994;2023-02-01T08:29:30;5.53;;;4.67;;
13584;SDS011;6863;48.402;9.994;2023-02-01T08:31:56;5.40;;;4.43;;
13584;SDS011;6863;48.402;9.994;2023-02-01T08:34:21;5.00;;;4.50;;
13584;SDS011;6863;48.402;9.994;2023-02-01T08:36:47;4.93;;;4.47;;
13584;SDS011;6863;48.402;9.994;2023-02-01T08:39:13;6.37;;;4.53;;
13584;SDS011;6863;48.402;9.994;2023-02-01T08:41:42;5.83;;;5.23;;
13584;SDS011;6863;48.402;9.994;2023-02-01T08:44:28;5.40;;;4.90;;
13584;SDS011;6863;48.402;9.994;2023-02-01T08:46:53;7.20;;;4.83;;
13584;SDS011;6863;48.402;9.994;2023-02-01T08:49:19;6.30;;;5.67;;
13584;SDS011;6863;48.402;9.994;2023-02-01T08:51:45;6.17;;;4.80;;
13584;SDS011;6863;48.402;9.994;2023-02-01T08:54:10;6.67;;;5.73;;
13584;SDS011;6863;48.402;9.994;2023-02-01T08:56:36;6.13;;;5.40;;
13584;SDS011;6863;48.402;9.994;2023-02-01T08:59:01;6.53;;;5.80;;
13584;SDS011;6863;48.402;9.994;2023-02-01T09:01:27;5.93;;;5.40;;
13584;SDS011;6863;48.402;9.994;2023-02-01T09:03:52;7.73;;;5.67;;
13584;SDS011;6863;48.402;9.994;2023-02-01T09:06:18;7.77;;;5.40;;
13584;SDS011;6863;48.402;9.994;2023-02-01T09:08:44;7.00;;;5.80;;
13584;SDS011;6863;48.402;9.994;2023-02-01T09:11:14;5.33;;;4.83;;
13584;SDS011;6863;48.402;9.994;2023-02-01T09:13:41;6.23;;;5.60;;
13584;SDS011;6863;48.402;9.994;2023-02-01T09:16:08;7.03;;;5.80;;
13584;SDS011;6863;48.402;9.994;2023-02-01T09:18:34;6.00;;;5.40;;
13584;SDS011;6863;48.402;9.994;2023-02-01T09:21:03;5.87;;;5.27;;
13584;SDS011;6863;48.402;9.994;2023-02-01T09:23:30;6.83;;;5.00;;
13584;SDS011;6863;48.402;9.994;2023-02-01T09:25:58;6.73;;;5.37;;
13584;SDS011;6863;48.402;9.994;2023-02-01T09:28:25;5.63;;;5.13;;
13584;SDS011;6863;48.402;9.994;2023-02-01T09:30:54;5.77;;;5.17;;
13584;SDS011;6863;48.402;9.994;2023-02-01T09:33:24;5.33;;;4.83;;
13584;SDS011;6863;48.402;9.994;2023-02-01T09:35:54;5.20;;;4.33;;
13584;SDS011;6863;48.402;9.994;2023-02-01T09:38:25;9.17;;;6.53;;
13584;SDS011;6863;48.402;9.994;2023-02-01T09:40:55;6.90;;;5.83;;
13584;SDS011;6863;48.402;9.994;2023-02-01T09:44:09;6.37;;;5.57;;
13584;SDS011;6863;48.402;9.994;2023-02-01T09:47:04;5.50;;;4.97;;
13584;SDS011;6863;48.402;9.994;2023-02-01T09:49:42;5.60;;;4.87;;
13584;SDS011;6863;48.402;9.994;2023-02-01T09:52:42;5.40;;;4.63;;
13584;SDS011;6863;48.402;9.994;2023-02-01T09:55:13;7.03;;;6.13;;
13584;SDS011;6863;48.402;9.994;2023-02-01T09:57:51;6.53;;;5.77;;
13584;SDS011;6863;48.402;9.994;2023-02-01T10:00:30;7.63;;;6.73;;
13584;SDS011;6863;48.402;9.994;2023-02-01T10:02:59;7.53;;;5.83;;
13584;SDS011;6863;48.402;9.994;2023-02-01T10:08:33;5.77;;;5.23;;
13584;SDS011;6863;48.402;9.994;2023-02-01T10:16:56;6.97;;;5.87;;
13584;SDS011;6863;48.402;9.994;2023-02-01T10:27:52;5.33;;;4.87;;
13584;SDS011;6863;48.402;9.994;2023-02-01T10:30:19;5.43;;;5.00;;
13584;SDS011;6863;48.402;9.994;2023-02-01T10:32:52;5.70;;;5.20;;
13584;SDS011;6863;48.402;9.994;2023-02-01T10:35:22;6.10;;;5.50;;
13584;SDS011;6863;48.402;9.994;2023-02-01T10:37:53;6.23;;;4.90;;
13584;SDS011;6863;48.402;9.994;2023-02-01T10:42:54;5.60;;;5.07;;
13584;SDS011;6863;48.402;9.994;2023-02-01T10:45:26;5.63;;;5.10;;
13584;SDS011;6863;48.402;9.994;2023-02-01T10:47:54;5.87;;;5.27;;
13584;SDS011;6863;48.402;9.994;2023-02-01T10:50:44;6.03;;;5.13;;
13584;SDS011;6863;48.402;9.994;2023-02-01T10:53:20;5.80;;;5.20;;
13584;SDS011;6863;48.402;9.994;2023-02-01T10:55:56;5.80;;;5.20;;
13584;SDS011;6863;48.402;9.994;2023-02-01T10:58:29;4.97;;;4.50;;
13584;SDS011;6863;48.402;9.994;2023-02-01T11:01:05;5.33;;;4.87;;
13584;SDS011;6863;48.402;9.994;2023-02-01T11:03:41;5.30;;;4.80;;
13584;SDS011;6863;48.402;9.994;2023-02-01T11:06:10;6.20;;;5.13;;
13584;SDS011;6863;48.402;9.994;2023-02-01T11:08:56;5.70;;;4.70;;
13584;SDS011;6863;48.402;9.994;2023-02-01T11:11:25;5.70;;;5.20;;
13584;SDS011;6863;48.402;9.994;2023-02-01T11:13:55;5.63;;;5.13;;
13584;SDS011;6863;48.402;9.994;2023-02-01T11:16:28;6.60;;;5.23;;
13584;SDS011;6863;48.402;9.994;2023-02-01T11:18:55;5.97;;;4.93;;
13584;SDS011;6863;48.402;9.994;2023-02-01T11:21:23;6.17;;;5.20;;
13584;SDS011;6863;48.402;9.994;2023-02-01T11:23:49;7.30;;;5.93;;
13584;SDS011;6863;48.402;9.994;2023-02-01T11:26:20;8.50;;;5.50;;
13584;SDS011;6863;48.402;9.994;2023-02-01T11:28:53;5.23;;;4.73;;
13584;SDS011;6863;48.402;9.994;2023-02-01T11:31:25;8.73;;;5.17;;
13584;SDS011;6863;48.402;9.994;2023-02-01T11:33:53;17.13;;;10.67;;
13584;SDS011;6863;48.402;9.994;2023-02-01T11:36:24;7.30;;;4.63;;
13584;SDS011;6863;48.402;9.994;2023-02-01T11:41:21;6.87;;;4.23;;
13584;SDS011;6863;48.402;9.994;2023-02-01T11:43:53;9.93;;;4.90;;
13584;SDS011;6863;48.402;9.994;2023-02-01T11:46:21;4.90;;;4.00;;
13584;SDS011;6863;48.402;9.994;2023-02-01T11:48:50;6.53;;;4.37;;
13584;SDS011;6863;48.402;9.994;2023-02-01T11:51:24;6.60;;;4.37;;
13584;SDS011;6863;48.402;9.994;2023-02-01T12:05:37;12.77;;;3.50;;
13584;SDS011;6863;48.402;9.994;2023-02-01T12:11:08;7.13;;;3.60;;
13584;SDS011;6863;48.402;9.994;2023-02-01T12:24:57;5.27;;;4.77;;
13584;SDS011;6863;48.402;9.994;2023-02-01T12:27:47;6.33;;;4.70;;
13584;SDS011;6863;48.402;9.994;2023-02-01T12:30:34;6.03;;;4.03;;
13584;SDS011;6863;48.402;9.994;2023-02-01T12:41:23;5.93;;;3.90;;
13584;SDS011;6863;48.402;9.994;2023-02-01T12:44:24;7.27;;;5.00;;
13584;SDS011;6863;48.402;9.994;2023-02-01T12:47:09;5.67;;;3.93;;
13584;SDS011;6863;48.402;9.994;2023-02-01T12:49:50;5.40;;;3.93;;
13584;SDS011;6863;48.402;9.994;2023-02-01T12:55:27;6.90;;;4.10;;
13584;SDS011;6863;48.402;9.994;2023-02-01T13:00:52;6.93;;;3.50;;
13584;SDS011;6863;48.402;9.994;2023-02-01T13:06:04;7.03;;;3.33;;
13584;SDS011;6863;48.402;9.994;2023-02-01T13:08:52;6.53;;;3.67;;
13584;SDS011;6863;48.402;9.994;2023-02-01T13:11:30;5.33;;;3.13;;
13584;SDS011;6863;48.402;9.994;2023-02-01T13:17:06;5.13;;;2.90;;
13584;SDS011;6863;48.402;9.994;2023-02-01T13:19:48;6.63;;;3.00;;
13584;SDS011;6863;48.402;9.994;2023-02-01T13:25:04;4.03;;;3.13;;
13584;SDS011;6863;48.402;9.994;2023-02-01T13:27:38;4.73;;;3.40;;
13584;SDS011;6863;48.402;9.994;2023-02-01T13:30:18;5.17;;;2.40;;
13584;SDS011;6863;48.402;9.994;2023-02-01T13:33:11;5.90;;;2.37;;
13584;SDS011;6863;48.402;9.994;2023-02-01T13:35:55;7.70;;;2.73;;
13584;SDS011;6863;48.402;9.994;2023-02-01T13:41:11;4.13;;;2.60;;
13584;SDS011;6863;48.402;9.994;2023-02-01T13:43:54;5.03;;;2.97;;
13584;SDS011;6863;48.402;9.994;2023-02-01T13:46:39;3.70;;;2.43;;
13584;SDS011;6863;48.402;9.994;2023-02-01T13:49:13;6.57;;;2.80;;
13584;SDS011;6863;48.402;9.994;2023-02-01T13:51:53;6.20;;;2.97;;
13584;SDS011;6863;48.402;9.994;2023-02-01T13:57:02;4.97;;;2.90;;
13584;SDS011;6863;48.402;9.994;2023-02-01T14:05:03;7.87;;;3.07;;
13584;SDS011;6863;48.402;9.994;2023-02-01T14:07:32;6.87;;;2.90;;
13584;SDS011;6863;48.402;9.994;2023-02-01T14:09:58;4.93;;;2.80;;
13584;SDS011;6863;48.402;9.994;2023-02-01T14:12:47;5.37;;;2.83;;
13584;SDS011;6863;48.402;9.994;2023-02-01T14:15:21;6.00;;;2.97;;
13584;SDS011;6863;48.402;9.994;2023-02-01T14:17:49;5.83;;;3.20;;
13584;SDS011;6863;48.402;9.994;2023-02-01T14:20:38;6.07;;;2.67;;
13584;SDS011;6863;48.402;9.994;2023-02-01T14:23:11;6.70;;;2.67;;
13584;SDS011;6863;48.402;9.994;2023-02-01T14:25:40;5.70;;;2.27;;
13584;SDS011;6863;48.402;9.994;2023-02-01T14:28:10;6.03;;;2.50;;
13584;SDS011;6863;48.402;9.994;2023-02-01T14:30:48;5.03;;;2.57;;
13584;SDS011;6863;48.402;9.994;2023-02-01T14:33:17;7.50;;;2.80;;
13584;SDS011;6863;48.402;9.994;2023-02-01T14:35:54;7.10;;;3.37;;
13584;SDS011;6863;48.402;9.994;2023-02-01T14:38:31;6.67;;;2.83;;
13584;SDS011;6863;48.402;9.994;2023-02-01T14:41:16;9.57;;;3.00;;
13584;SDS011;6863;48.402;9.994;2023-02-01T14:49:31;10.27;;;5.20;;
13584;SDS011;6863;48.402;9.994;2023-02-01T14:52:02;9.00;;;3.57;;
13584;SDS011;6863;48.402;9.994;2023-02-01T14:54:31;6.97;;;2.87;;
13584;SDS011;6863;48.402;9.994;2023-02-01T14:56:57;6.30;;;2.80;;
13584;SDS011;6863;48.402;9.994;2023-02-01T14:59:24;8.20;;;3.70;;
13584;SDS011;6863;48.402;9.994;2023-02-01T15:01:58;7.47;;;3.40;;
13584;SDS011;6863;48.402;9.994;2023-02-01T15:04:26;5.87;;;3.03;;
13584;SDS011;6863;48.402;9.994;2023-02-01T15:06:56;8.00;;;3.00;;
13584;SDS011;6863;48.402;9.994;2023-02-01T15:12:03;7.80;;;3.00;;
13584;SDS011;6863;48.402;9.994;2023-02-01T15:17:52;6.60;;;2.80;;
13584;SDS011;6863;48.402;9.994;2023-02-01T15:20:31;7.67;;;2.90;;
13584;SDS011;6863;48.402;9.994;2023-02-01T15:23:15;8.93;;;3.20;;
13584;SDS011;6863;48.402;9.994;2023-02-01T15:25:44;7.57;;;3.00;;
13584;SDS011;6863;48.402;9.994;2023-02-01T15:28:12;5.13;;;2.83;;
13584;SDS011;6863;48.402;9.994;2023-02-01T15:31:01;9.80;;;3.87;;
13584;SDS011;6863;48.402;9.994;2023-02-01T15:33:29;9.77;;;3.43;;
13584;SDS011;6863;48.402;9.994;2023-02-01T15:38:31;4.47;;;3.13;;
13584;SDS011;6863;48.402;9.994;2023-02-01T15:41:16;7.07;;;3.57;;
13584;SDS011;6863;48.402;9.994;2023-02-01T15:46:21;7.20;;;3.37;;
13584;SDS011;6863;48.402;9.994;2023-02-01T15:48:58;6.23;;;3.13;;
13584;SDS011;6863;48.402;9.994;2023-02-01T15:51:25;6.57;;;3.67;;
13584;SDS011;6863;48.402;9.994;2023-02-01T15:54:04;8.30;;;3.93;;
13584;SDS011;6863;48.402;9.994;2023-02-01T15:56:36;8.70;;;4.03;;
13584;SDS011;6863;48.402;9.994;2023-02-01T15:59:05;7.13;;;3.87;;
13584;SDS011;6863;48.402;9.994;2023-02-01T16:01:38;7.97;;;3.37;;
13584;SDS011;6863;48.402;9.994;2023-02-01T16:04:20;7.37;;;3.00;;
13584;SDS011;6863;48.402;9.994;2023-02-01T16:06:50;7.83;;;3.53;;
13584;SDS011;6863;48.402;9.994;2023-02-01T16:09:18;7.33;;;3.37;;
13584;SDS011;6863;48.402;9.994;2023-02-01T16:11:52;3.90;;;3.10;;
13584;SDS011;6863;48.402;9.994;2023-02-01T16:14:20;4.97;;;3.67;;
13584;SDS011;6863;48.402;9.994;2023-02-01T16:16:47;6.37;;;2.50;;
13584;SDS011;6863;48.402;9.994;2023-02-01T16:19:13;6.07;;;3.57;;
13584;SDS011;6863;48.402;9.994;2023-02-01T16:21:38;7.77;;;3.73;;
13584;SDS011;6863;48.402;9.994;2023-02-01T16:24:04;6.80;;;3.27;;
13584;SDS011;6863;48.402;9.994;2023-02-01T16:26:31;6.77;;;2.70;;
13584;SDS011;6863;48.402;9.994;2023-02-01T16:28:57;5.57;;;3.60;;
13584;SDS011;6863;48.402;9.994;2023-02-01T16:31:25;8.53;;;3.70;;
13584;SDS011;6863;48.402;9.994;2023-02-01T16:33:53;7.30;;;3.73;;
13584;SDS011;6863;48.402;9.994;2023-02-01T16:36:19;6.47;;;3.53;;
13584;SDS011;6863;48.402;9.994;2023-02-01T16:38:46;7.27;;;3.50;;
13584;SDS011;6863;48.402;9.994;2023-02-01T16:41:17;5.63;;;3.00;;
13584;SDS011;6863;48.402;9.994;2023-02-01T16:43:44;9.13;;;3.87;;
13584;SDS011;6863;48.402;9.994;2023-02-01T16:46:14;7.50;;;3.30;;
13584;SDS011;6863;48.402;9.994;2023-02-01T16:48:50;5.73;;;3.10;;
13584;SDS011;6863;48.402;9.994;2023-02-01T16:51:18;8.37;;;3.23;;
13584;SDS011;6863;48.402;9.994;2023-02-01T16:53:45;4.67;;;3.03;;
13584;SDS011;6863;48.402;9.994;2023-02-01T16:56:12;7.23;;;3.57;;
13584;SDS011;6863;48.402;9.994;2023-02-01T16:58:43;5.07;;;4.00;;
13584;SDS011;6863;48.402;9.994;2023-02-01T17:01:09;9.70;;;3.83;;
13584;SDS011;6863;48.402;9.994;2023-02-01T17:03:37;8.27;;;4.17;;
13584;SDS011;6863;48.402;9.994;2023-02-01T17:06:02;6.63;;;3.37;;
13584;SDS011;6863;48.402;9.994;2023-02-01T17:08:32;6.80;;;3.60;;
13584;SDS011;6863;48.402;9.994;2023-02-01T17:11:00;7.47;;;3.27;;
13584;SDS011;6863;48.402;9.994;2023-02-01T17:13:27;4.70;;;3.63;;
13584;SDS011;6863;48.402;9.994;2023-02-01T17:16:00;5.73;;;2.83;;
13584;SDS011;6863;48.402;9.994;2023-02-01T17:18:28;5.93;;;3.57;;
13584;SDS011;6863;48.402;9.994;2023-02-01T17:20:58;5.87;;;3.50;;
13584;SDS011;6863;48.402;9.994;2023-02-01T17:23:24;8.37;;;4.00;;
13584;SDS011;6863;48.402;9.994;2023-02-01T17:25:51;5.33;;;3.37;;
13584;SDS011;6863;48.402;9.994;2023-02-01T17:28:17;6.37;;;3.37;;
13584;SDS011;6863;48.402;9.994;2023-02-01T17:30:43;8.20;;;3.37;;
13584;SDS011;6863;48.402;9.994;2023-02-01T17:33:19;9.00;;;3.87;;
13584;SDS011;6863;48.402;9.994;2023-02-01T17:35:54;6.37;;;3.43;;
13584;SDS011;6863;48.402;9.994;2023-02-01T17:38:21;7.90;;;3.30;;
13584;SDS011;6863;48.402;9.994;2023-02-01T17:40:47;4.90;;;3.10;;